sensor_id;sensor_type;location;lat;lon;timestamp;pressure;altitude;pressure_sealevel;temperature;humidity
75414;BME280;64758;52.122;5.404;2022-10-31T00:01:11;102297.66;;;10.88;97.15
75414;BME280;64758;52.122;5.404;2022-10-31T00:03:37;102299.88;;;10.92;97.71
75414;BME280;64758;52.122;5.404;2022-10-31T00:06:04;102297.59;;;10.97;98.21
75414;BME280;64758;52.122;5.404;2022-10-31T00:08:30;102299.28;;;10.98;98.19
75414;BME280;64758;52.122;5.404;2022-10-31T00:10:57;102297.44;;;10.99;97.91
75414;BME280;64758;52.122;5.404;2022-10-31T00:13:23;102296.44;;;11.00;97.68
75414;BME280;64758;52.122;5.404;2022-10-31T00:15:50;102297.31;;;11.00;97.43
75414;BME280;64758;52.122;5.404;2022-10-31T00:18:16;102304.28;;;11.01;97.51
75414;BME280;64758;52.122;5.404;2022-10-31T00:20:43;102297.59;;;10.97;97.90
75414;BME280;64758;52.122;5.404;2022-10-31T00:23:10;102300.72;;;10.93;98.14
75414;BME280;64758;52.122;5.404;2022-10-31T00:25:38;102299.03;;;10.92;97.95
75414;BME280;64758;52.122;5.404;2022-10-31T00:28:06;102294.63;;;10.83;97.43
75414;BME280;64758;52.122;5.404;2022-10-31T00:30:33;102307.09;;;10.82;97.48
75414;BME280;64758;52.122;5.404;2022-10-31T00:33:00;102315.59;;;10.86;97.55
75414;BME280;64758;52.122;5.404;2022-10-31T00:35:29;102306.19;;;10.91;97.83
75414;BME280;64758;52.122;5.404;2022-10-31T00:37:55;102301.19;;;10.88;98.25
75414;BME280;64758;52.122;5.404;2022-10-31T00:40:22;102309.16;;;10.88;97.68
75414;BME280;64758;52.122;5.404;2022-10-31T00:42:48;102306.50;;;10.88;97.22
75414;BME280;64758;52.122;5.404;2022-10-31T00:45:15;102296.16;;;10.85;97.56
75414;BME280;64758;52.122;5.404;2022-10-31T00:47:41;102313.91;;;10.85;97.25
75414;BME280;64758;52.122;5.404;2022-10-31T00:50:08;102319.09;;;10.86;98.10
75414;BME280;64758;52.122;5.404;2022-10-31T00:52:35;102309.59;;;10.84;97.56
75414;BME280;64758;52.122;5.404;2022-10-31T00:55:01;102318.13;;;10.87;97.52
75414;BME280;64758;52.122;5.404;2022-10-31T00:57:28;102316.44;;;10.86;97.84
75414;BME280;64758;52.122;5.404;2022-10-31T00:59:54;102323.13;;;10.90;97.76
75414;BME280;64758;52.122;5.404;2022-10-31T01:02:21;102309.84;;;10.90;97.73
75414;BME280;64758;52.122;5.404;2022-10-31T01:04:48;102318.13;;;10.87;97.97
75414;BME280;64758;52.122;5.404;2022-10-31T01:07:14;102314.22;;;10.82;98.29
75414;BME280;64758;52.122;5.404;2022-10-31T01:09:40;102316.38;;;10.78;97.14
75414;BME280;64758;52.122;5.404;2022-10-31T01:12:07;102316.72;;;10.66;97.37
75414;BME280;64758;52.122;5.404;2022-10-31T01:14:34;102314.66;;;10.60;97.59
75414;BME280;64758;52.122;5.404;2022-10-31T01:17:01;102309.66;;;10.57;97.80
75414;BME280;64758;52.122;5.404;2022-10-31T01:19:29;102304.25;;;10.49;97.80
75414;BME280;64758;52.122;5.404;2022-10-31T01:21:55;102304.03;;;10.42;97.27
75414;BME280;64758;52.122;5.404;2022-10-31T01:24:22;102308.19;;;10.45;97.23
75414;BME280;64758;52.122;5.404;2022-10-31T01:26:48;102294.69;;;10.38;97.15
75414;BME280;64758;52.122;5.404;2022-10-31T01:29:15;102289.66;;;10.35;97.68
75414;BME280;64758;52.122;5.404;2022-10-31T01:31:41;102285.63;;;10.31;97.88
75414;BME280;64758;52.122;5.404;2022-10-31T01:34:12;102279.94;;;10.26;97.24
75414;BME280;64758;52.122;5.404;2022-10-31T01:36:39;102288.03;;;10.25;97.33
75414;BME280;64758;52.122;5.404;2022-10-31T01:39:12;102288.19;;;10.23;97.34
75414;BME280;64758;52.122;5.404;2022-10-31T01:41:42;102290.16;;;10.21;97.99
75414;BME280;64758;52.122;5.404;2022-10-31T01:46:46;102279.31;;;10.15;97.81
75414;BME280;64758;52.122;5.404;2022-10-31T01:51:57;102285.53;;;10.06;98.12
75414;BME280;64758;52.122;5.404;2022-10-31T01:54:29;102285.66;;;10.05;98.29
75414;BME280;64758;52.122;5.404;2022-10-31T01:56:59;102290.97;;;10.05;97.54
75414;BME280;64758;52.122;5.404;2022-10-31T01:59:29;102285.53;;;10.06;97.76
75414;BME280;64758;52.122;5.404;2022-10-31T02:01:57;102274.03;;;10.06;97.59
75414;BME280;64758;52.122;5.404;2022-10-31T02:04:24;102279.66;;;10.03;97.25
75414;BME280;64758;52.122;5.404;2022-10-31T02:07:04;102274.22;;;9.95;97.19
75414;BME280;64758;52.122;5.404;2022-10-31T02:09:34;102280.41;;;9.86;97.25
75414;BME280;64758;52.122;5.404;2022-10-31T02:12:02;102283.78;;;9.78;96.87
75414;BME280;64758;52.122;5.404;2022-10-31T02:14:30;102277.41;;;9.62;96.86
75414;BME280;64758;52.122;5.404;2022-10-31T02:16:57;102274.34;;;9.57;96.82
75414;BME280;64758;52.122;5.404;2022-10-31T02:22:09;102277.47;;;9.52;97.20
75414;BME280;64758;52.122;5.404;2022-10-31T02:30:07;102288.78;;;9.45;97.74
75414;BME280;64758;52.122;5.404;2022-10-31T02:32:47;102276.94;;;9.39;97.37
75414;BME280;64758;52.122;5.404;2022-10-31T02:35:40;102276.53;;;9.34;97.28
75414;BME280;64758;52.122;5.404;2022-10-31T02:41:06;102289.09;;;9.23;97.50
75414;BME280;64758;52.122;5.404;2022-10-31T02:48:46;102287.84;;;9.08;97.61
75414;BME280;64758;52.122;5.404;2022-10-31T02:51:15;102304.88;;;9.05;97.59
75414;BME280;64758;52.122;5.404;2022-10-31T02:53:42;102290.53;;;8.98;97.40
75414;BME280;64758;52.122;5.404;2022-10-31T02:56:12;102294.28;;;8.96;97.79
75414;BME280;64758;52.122;5.404;2022-10-31T03:04:15;102289.56;;;8.90;97.51
75414;BME280;64758;52.122;5.404;2022-10-31T03:15:32;102284.00;;;8.74;97.82
75414;BME280;64758;52.122;5.404;2022-10-31T03:18:09;102298.06;;;8.75;97.88
75414;BME280;64758;52.122;5.404;2022-10-31T03:20:41;102294.84;;;8.71;97.70
75414;BME280;64758;52.122;5.404;2022-10-31T03:23:12;102294.72;;;8.63;97.07
75414;BME280;64758;52.122;5.404;2022-10-31T03:25:40;102300.13;;;8.62;97.70
75414;BME280;64758;52.122;5.404;2022-10-31T03:28:08;102304.03;;;8.58;97.56
75414;BME280;64758;52.122;5.404;2022-10-31T03:30:38;102296.50;;;8.53;97.59
75414;BME280;64758;52.122;5.404;2022-10-31T03:33:10;102295.13;;;8.49;97.54
75414;BME280;64758;52.122;5.404;2022-10-31T03:35:40;102299.56;;;8.49;97.51
75414;BME280;64758;52.122;5.404;2022-10-31T03:38:08;102307.50;;;8.49;97.85
75414;BME280;64758;52.122;5.404;2022-10-31T03:40:36;102304.84;;;8.49;97.63
75414;BME280;64758;52.122;5.404;2022-10-31T03:43:07;102304.31;;;8.45;97.91
75414;BME280;64758;52.122;5.404;2022-10-31T03:45:41;102300.38;;;8.40;97.75
75414;BME280;64758;52.122;5.404;2022-10-31T03:48:08;102299.13;;;8.34;98.14
75414;BME280;64758;52.122;5.404;2022-10-31T03:50:50;102307.34;;;8.31;98.02
75414;BME280;64758;52.122;5.404;2022-10-31T03:53:45;102307.34;;;8.31;98.29
75414;BME280;64758;52.122;5.404;2022-10-31T03:56:22;102301.47;;;8.28;98.50
75414;BME280;64758;52.122;5.404;2022-10-31T03:59:05;102299.94;;;8.25;98.22
75414;BME280;64758;52.122;5.404;2022-10-31T04:01:37;102300.06;;;8.24;98.36
75414;BME280;64758;52.122;5.404;2022-10-31T04:04:06;102309.25;;;8.20;98.32
75414;BME280;64758;52.122;5.404;2022-10-31T04:06:35;102300.47;;;8.19;98.14
75414;BME280;64758;52.122;5.404;2022-10-31T04:09:05;102301.19;;;8.21;98.07
75414;BME280;64758;52.122;5.404;2022-10-31T04:11:45;102308.16;;;8.22;98.07
75414;BME280;64758;52.122;5.404;2022-10-31T04:14:12;102304.78;;;8.20;97.88
75414;BME280;64758;52.122;5.404;2022-10-31T04:16:43;102310.44;;;8.16;97.67
75414;BME280;64758;52.122;5.404;2022-10-31T04:19:11;102317.84;;;8.12;97.63
75414;BME280;64758;52.122;5.404;2022-10-31T04:21:38;102311.94;;;8.09;97.37
75414;BME280;64758;52.122;5.404;2022-10-31T04:24:05;102315.00;;;8.04;97.66
75414;BME280;64758;52.122;5.404;2022-10-31T04:26:31;102305.78;;;7.99;97.70
75414;BME280;64758;52.122;5.404;2022-10-31T04:28:58;102306.91;;;7.96;97.72
75414;BME280;64758;52.122;5.404;2022-10-31T04:31:24;102307.88;;;7.95;97.98
75414;BME280;64758;52.122;5.404;2022-10-31T04:33:51;102301.28;;;7.90;97.78
75414;BME280;64758;52.122;5.404;2022-10-31T04:36:17;102308.53;;;7.88;97.74
75414;BME280;64758;52.122;5.404;2022-10-31T04:38:44;102299.78;;;7.87;97.95
75414;BME280;64758;52.122;5.404;2022-10-31T04:41:10;102304.34;;;7.85;97.62
75414;BME280;64758;52.122;5.404;2022-10-31T04:43:37;102302.78;;;7.83;97.58
75414;BME280;64758;52.122;5.404;2022-10-31T04:46:03;102289.84;;;7.80;97.73
75414;BME280;64758;52.122;5.404;2022-10-31T04:48:30;102291.94;;;7.76;97.82
75414;BME280;64758;52.122;5.404;2022-10-31T04:51:00;102287.88;;;7.72;97.87
75414;BME280;64758;52.122;5.404;2022-10-31T04:53:27;102297.75;;;7.70;97.94
75414;BME280;64758;52.122;5.404;2022-10-31T04:55:54;102298.00;;;7.67;97.70
75414;BME280;64758;52.122;5.404;2022-10-31T04:58:21;102296.34;;;7.66;97.71
75414;BME280;64758;52.122;5.404;2022-10-31T05:00:51;102300.91;;;7.64;97.88
75414;BME280;64758;52.122;5.404;2022-10-31T05:03:18;102291.56;;;7.60;97.24
75414;BME280;64758;52.122;5.404;2022-10-31T05:05:44;102289.19;;;7.57;97.52
75414;BME280;64758;52.122;5.404;2022-10-31T05:08:11;102292.81;;;7.56;97.90
75414;BME280;64758;52.122;5.404;2022-10-31T05:10:37;102287.78;;;7.53;97.94
75414;BME280;64758;52.122;5.404;2022-10-31T05:13:04;102288.47;;;7.55;98.12
75414;BME280;64758;52.122;5.404;2022-10-31T05:15:31;102291.84;;;7.57;98.17
75414;BME280;64758;52.122;5.404;2022-10-31T05:17:59;102298.94;;;7.57;98.14
75414;BME280;64758;52.122;5.404;2022-10-31T05:20:27;102295.44;;;7.56;98.27
75414;BME280;64758;52.122;5.404;2022-10-31T05:22:56;102289.34;;;7.56;98.10
75414;BME280;64758;52.122;5.404;2022-10-31T05:25:24;102276.50;;;7.52;98.15
75414;BME280;64758;52.122;5.404;2022-10-31T05:27:53;102288.03;;;7.51;98.33
75414;BME280;64758;52.122;5.404;2022-10-31T05:30:26;102287.78;;;7.53;98.41
75414;BME280;64758;52.122;5.404;2022-10-31T05:32:54;102277.09;;;7.55;98.11
75414;BME280;64758;52.122;5.404;2022-10-31T05:35:23;102281.41;;;7.56;97.78
75414;BME280;64758;52.122;5.404;2022-10-31T05:37:50;102282.50;;;7.53;98.12
75414;BME280;64758;52.122;5.404;2022-10-31T05:40:18;102282.50;;;7.53;98.06
75414;BME280;64758;52.122;5.404;2022-10-31T05:42:45;102280.00;;;7.52;98.53
75414;BME280;64758;52.122;5.404;2022-10-31T05:45:14;102281.06;;;7.50;98.26
75414;BME280;64758;52.122;5.404;2022-10-31T05:47:42;102284.44;;;7.52;98.33
75414;BME280;64758;52.122;5.404;2022-10-31T05:50:09;102282.75;;;7.51;98.63
75414;BME280;64758;52.122;5.404;2022-10-31T05:52:36;102278.59;;;7.48;98.50
75414;BME280;64758;52.122;5.404;2022-10-31T05:55:02;102279.09;;;7.42;98.47
75414;BME280;64758;52.122;5.404;2022-10-31T05:57:31;102268.91;;;7.38;98.22
75414;BME280;64758;52.122;5.404;2022-10-31T05:59:58;102270.13;;;7.34;98.28
75414;BME280;64758;52.122;5.404;2022-10-31T06:02:25;102264.84;;;7.34;98.42
75414;BME280;64758;52.122;5.404;2022-10-31T06:04:53;102268.59;;;7.31;98.33
75414;BME280;64758;52.122;5.404;2022-10-31T06:07:19;102267.91;;;7.29;98.39
75414;BME280;64758;52.122;5.404;2022-10-31T06:09:46;102260.69;;;7.31;99.00
75414;BME280;64758;52.122;5.404;2022-10-31T06:12:12;102262.34;;;7.32;98.41
75414;BME280;64758;52.122;5.404;2022-10-31T06:14:39;102263.44;;;7.30;98.71
75414;BME280;64758;52.122;5.404;2022-10-31T06:17:06;102267.03;;;7.29;98.79
75414;BME280;64758;52.122;5.404;2022-10-31T06:19:32;102261.19;;;7.25;98.96
75414;BME280;64758;52.122;5.404;2022-10-31T06:21:59;102269.84;;;7.27;99.12
75414;BME280;64758;52.122;5.404;2022-10-31T06:24:25;102266.94;;;7.30;99.54
75414;BME280;64758;52.122;5.404;2022-10-31T06:26:52;102262.88;;;7.26;99.42
75414;BME280;64758;52.122;5.404;2022-10-31T06:29:18;102264.41;;;7.29;99.17
75414;BME280;64758;52.122;5.404;2022-10-31T06:31:45;102266.94;;;7.30;99.03
75414;BME280;64758;52.122;5.404;2022-10-31T06:34:11;102268.59;;;7.31;99.32
75414;BME280;64758;52.122;5.404;2022-10-31T06:36:37;102272.78;;;7.34;98.96
75414;BME280;64758;52.122;5.404;2022-10-31T06:39:04;102268.78;;;7.39;99.46
75414;BME280;64758;52.122;5.404;2022-10-31T06:41:30;102278.41;;;7.40;99.57
75414;BME280;64758;52.122;5.404;2022-10-31T06:43:57;102276.31;;;7.44;99.65
75414;BME280;64758;52.122;5.404;2022-10-31T06:46:23;102281.06;;;7.50;99.34
75414;BME280;64758;52.122;5.404;2022-10-31T06:48:50;102280.00;;;7.52;100.00
75414;BME280;64758;52.122;5.404;2022-10-31T06:51:16;102281.41;;;7.56;100.00
75414;BME280;64758;52.122;5.404;2022-10-31T06:53:43;102278.63;;;7.57;100.00
75414;BME280;64758;52.122;5.404;2022-10-31T06:56:09;102281.97;;;7.59;100.00
75414;BME280;64758;52.122;5.404;2022-10-31T06:58:35;102292.97;;;7.64;100.00
75414;BME280;64758;52.122;5.404;2022-10-31T07:01:02;102282.56;;;7.63;100.00
75414;BME280;64758;52.122;5.404;2022-10-31T07:03:29;102279.75;;;7.64;100.00
75414;BME280;64758;52.122;5.404;2022-10-31T07:05:56;102280.47;;;7.66;100.00
75414;BME280;64758;52.122;5.404;2022-10-31T07:08:23;102289.81;;;7.70;100.00
75414;BME280;64758;52.122;5.404;2022-10-31T07:10:52;102285.94;;;7.74;100.00
75414;BME280;64758;52.122;5.404;2022-10-31T07:13:19;102292.63;;;7.78;100.00
75414;BME280;64758;52.122;5.404;2022-10-31T07:15:52;102285.13;;;7.83;100.00
75414;BME280;64758;52.122;5.404;2022-10-31T07:18:20;102279.59;;;7.86;100.00
75414;BME280;64758;52.122;5.404;2022-10-31T07:20:47;102278.03;;;7.84;100.00
75414;BME280;64758;52.122;5.404;2022-10-31T07:23:14;102275.25;;;7.85;100.00
75414;BME280;64758;52.122;5.404;2022-10-31T07:25:41;102283.91;;;7.87;100.00
75414;BME280;64758;52.122;5.404;2022-10-31T07:28:08;102276.53;;;7.91;100.00
75414;BME280;64758;52.122;5.404;2022-10-31T07:30:35;102291.31;;;7.93;100.00
75414;BME280;64758;52.122;5.404;2022-10-31T07:33:01;102291.31;;;7.93;100.00
75414;BME280;64758;52.122;5.404;2022-10-31T07:35:29;102290.78;;;7.99;100.00
75414;BME280;64758;52.122;5.404;2022-10-31T07:37:56;102293.97;;;8.03;100.00
75414;BME280;64758;52.122;5.404;2022-10-31T07:40:24;102294.81;;;8.03;100.00
75414;BME280;64758;52.122;5.404;2022-10-31T07:42:52;102299.31;;;8.12;100.00
75414;BME280;64758;52.122;5.404;2022-10-31T07:45:20;102283.16;;;8.15;100.00
75414;BME280;64758;52.122;5.404;2022-10-31T07:47:49;102294.34;;;8.19;100.00
75414;BME280;64758;52.122;5.404;2022-10-31T07:50:18;102293.09;;;8.23;100.00
75414;BME280;64758;52.122;5.404;2022-10-31T07:52:45;102292.69;;;8.27;99.76
75414;BME280;64758;52.122;5.404;2022-10-31T07:55:12;102301.06;;;8.32;100.00
75414;BME280;64758;52.122;5.404;2022-10-31T07:57:38;102296.75;;;8.41;100.00
75414;BME280;64758;52.122;5.404;2022-10-31T08:00:10;102295.66;;;8.53;100.00
75414;BME280;64758;52.122;5.404;2022-10-31T08:02:36;102303.06;;;8.59;100.00
75414;BME280;64758;52.122;5.404;2022-10-31T08:05:03;102297.06;;;8.57;100.00
75414;BME280;64758;52.122;5.404;2022-10-31T08:07:35;102300.00;;;8.63;100.00
75414;BME280;64758;52.122;5.404;2022-10-31T08:10:07;102298.34;;;8.72;100.00
75414;BME280;64758;52.122;5.404;2022-10-31T08:12:33;102306.03;;;8.84;100.00
75414;BME280;64758;52.122;5.404;2022-10-31T08:15:00;102302.09;;;8.97;100.00
75414;BME280;64758;52.122;5.404;2022-10-31T08:17:28;102299.44;;;9.07;100.00
75414;BME280;64758;52.122;5.404;2022-10-31T08:19:55;102305.72;;;9.15;100.00
75414;BME280;64758;52.122;5.404;2022-10-31T08:22:22;102297.91;;;9.23;100.00
75414;BME280;64758;52.122;5.404;2022-10-31T08:24:48;102298.97;;;9.40;100.00
75414;BME280;64758;52.122;5.404;2022-10-31T08:27:15;102305.50;;;9.55;100.00
75414;BME280;64758;52.122;5.404;2022-10-31T08:29:41;102300.59;;;9.69;100.00
75414;BME280;64758;52.122;5.404;2022-10-31T08:32:08;102296.91;;;9.80;100.00
75414;BME280;64758;52.122;5.404;2022-10-31T08:34:34;102296.31;;;9.86;100.00
75414;BME280;64758;52.122;5.404;2022-10-31T08:37:01;102290.28;;;9.93;100.00
75414;BME280;64758;52.122;5.404;2022-10-31T08:39:27;102296.56;;;10.02;100.00
75414;BME280;64758;52.122;5.404;2022-10-31T08:41:53;102294.00;;;10.10;100.00
75414;BME280;64758;52.122;5.404;2022-10-31T08:44:20;102295.25;;;10.15;100.00
75414;BME280;64758;52.122;5.404;2022-10-31T08:46:47;102288.50;;;10.20;100.00
75414;BME280;64758;52.122;5.404;2022-10-31T08:49:13;102288.03;;;10.25;100.00
75414;BME280;64758;52.122;5.404;2022-10-31T08:51:40;102288.28;;;10.31;100.00
75414;BME280;64758;52.122;5.404;2022-10-31T08:54:06;102283.66;;;10.33;100.00
75414;BME280;64758;52.122;5.404;2022-10-31T08:56:33;102281.78;;;10.43;100.00
75414;BME280;64758;52.122;5.404;2022-10-31T08:58:59;102264.41;;;10.49;100.00
75414;BME280;64758;52.122;5.404;2022-10-31T09:01:26;102266.63;;;10.53;100.00
75414;BME280;64758;52.122;5.404;2022-10-31T09:03:52;102272.16;;;10.60;100.00
75414;BME280;64758;52.122;5.404;2022-10-31T09:06:19;102269.44;;;10.69;100.00
75414;BME280;64758;52.122;5.404;2022-10-31T09:08:45;102270.56;;;10.84;100.00
75414;BME280;64758;52.122;5.404;2022-10-31T09:11:12;102265.69;;;10.97;100.00
75414;BME280;64758;52.122;5.404;2022-10-31T09:13:38;102260.88;;;11.18;100.00
75414;BME280;64758;52.122;5.404;2022-10-31T09:16:07;102250.91;;;11.45;100.00
75414;BME280;64758;52.122;5.404;2022-10-31T09:18:33;102253.06;;;11.67;100.00
75414;BME280;64758;52.122;5.404;2022-10-31T09:21:00;102247.66;;;11.85;100.00
75414;BME280;64758;52.122;5.404;2022-10-31T09:23:27;102244.03;;;11.94;100.00
75414;BME280;64758;52.122;5.404;2022-10-31T09:25:54;102235.03;;;11.95;100.00
75414;BME280;64758;52.122;5.404;2022-10-31T09:28:23;102225.59;;;12.00;100.00
75414;BME280;64758;52.122;5.404;2022-10-31T09:30:51;102226.63;;;12.07;100.00
75414;BME280;64758;52.122;5.404;2022-10-31T09:33:18;102222.81;;;12.18;100.00
75414;BME280;64758;52.122;5.404;2022-10-31T09:35:45;102215.16;;;12.31;100.00
75414;BME280;64758;52.122;5.404;2022-10-31T09:38:14;102208.38;;;12.44;100.00
75414;BME280;64758;52.122;5.404;2022-10-31T09:40:43;102211.41;;;12.57;100.00
75414;BME280;64758;52.122;5.404;2022-10-31T09:43:14;102212.41;;;12.72;99.92
75414;BME280;64758;52.122;5.404;2022-10-31T09:45:44;102221.22;;;12.80;99.88
75414;BME280;64758;52.122;5.404;2022-10-31T09:48:40;102218.59;;;12.96;99.50
75414;BME280;64758;52.122;5.404;2022-10-31T09:51:24;102213.38;;;13.11;99.23
75414;BME280;64758;52.122;5.404;2022-10-31T09:56:40;102207.19;;;13.34;98.64
75414;BME280;64758;52.122;5.404;2022-10-31T09:59:17;102204.47;;;13.50;99.63
75414;BME280;64758;52.122;5.404;2022-10-31T10:01:49;102197.75;;;13.70;99.54
75414;BME280;64758;52.122;5.404;2022-10-31T10:04:38;102201.31;;;13.93;99.21
75414;BME280;64758;52.122;5.404;2022-10-31T10:07:32;102203.69;;;14.10;98.23
75414;BME280;64758;52.122;5.404;2022-10-31T10:10:31;102190.13;;;14.20;98.21
75414;BME280;64758;52.122;5.404;2022-10-31T10:13:04;102186.41;;;14.29;97.80
75414;BME280;64758;52.122;5.404;2022-10-31T10:26:36;102191.47;;;14.69;95.90
75414;BME280;64758;52.122;5.404;2022-10-31T10:29:17;102179.59;;;14.71;95.41
75414;BME280;64758;52.122;5.404;2022-10-31T10:31:48;102166.38;;;14.70;95.43
75414;BME280;64758;52.122;5.404;2022-10-31T10:34:29;102164.91;;;14.67;94.73
75414;BME280;64758;52.122;5.404;2022-10-31T10:39:35;102165.47;;;14.77;94.31
75414;BME280;64758;52.122;5.404;2022-10-31T10:42:11;102164.28;;;14.80;94.82
75414;BME280;64758;52.122;5.404;2022-10-31T10:44:57;102158.19;;;14.86;94.04
75414;BME280;64758;52.122;5.404;2022-10-31T10:47:44;102150.59;;;14.97;93.51
75414;BME280;64758;52.122;5.404;2022-10-31T10:50:19;102139.59;;;15.07;93.85
75414;BME280;64758;52.122;5.404;2022-10-31T10:58:49;102122.28;;;15.32;92.35
75414;BME280;64758;52.122;5.404;2022-10-31T11:01:15;102110.53;;;15.47;92.77
75414;BME280;64758;52.122;5.404;2022-10-31T11:03:42;102105.53;;;15.58;91.73
75414;BME280;64758;52.122;5.404;2022-10-31T11:06:37;102102.94;;;15.65;91.39
75414;BME280;64758;52.122;5.404;2022-10-31T11:09:10;102086.03;;;15.64;90.46
75414;BME280;64758;52.122;5.404;2022-10-31T11:11:38;102063.13;;;15.62;90.17
75414;BME280;64758;52.122;5.404;2022-10-31T11:14:12;102056.94;;;15.61;90.21
75414;BME280;64758;52.122;5.404;2022-10-31T11:16:45;102058.22;;;15.65;90.52
75414;BME280;64758;52.122;5.404;2022-10-31T11:21:38;102061.69;;;15.80;89.56
75414;BME280;64758;52.122;5.404;2022-10-31T11:26:39;102062.34;;;16.03;88.02
75414;BME280;64758;52.122;5.404;2022-10-31T11:29:24;102075.75;;;16.03;87.39
75414;BME280;64758;52.122;5.404;2022-10-31T11:31:53;102069.91;;;16.00;87.31
75414;BME280;64758;52.122;5.404;2022-10-31T11:34:32;102065.84;;;16.04;87.37
75414;BME280;64758;52.122;5.404;2022-10-31T11:37:14;102060.31;;;16.05;87.78
75414;BME280;64758;52.122;5.404;2022-10-31T11:39:45;102050.59;;;16.04;87.25
75414;BME280;64758;52.122;5.404;2022-10-31T11:42:21;102045.28;;;16.11;87.38
75414;BME280;64758;52.122;5.404;2022-10-31T11:44:49;102049.44;;;16.13;87.56
75414;BME280;64758;52.122;5.404;2022-10-31T11:47:17;102040.78;;;16.11;87.36
75414;BME280;64758;52.122;5.404;2022-10-31T11:49:48;102036.69;;;16.15;86.56
75414;BME280;64758;52.122;5.404;2022-10-31T11:52:27;102029.03;;;16.12;86.44
75414;BME280;64758;52.122;5.404;2022-10-31T11:54:59;102023.84;;;16.11;86.08
75414;BME280;64758;52.122;5.404;2022-10-31T12:00:29;101994.56;;;16.09;87.10
75414;BME280;64758;52.122;5.404;2022-10-31T12:06:13;101981.16;;;16.09;86.78
75414;BME280;64758;52.122;5.404;2022-10-31T12:08:41;101987.28;;;16.03;87.26
75414;BME280;64758;52.122;5.404;2022-10-31T12:11:15;101976.31;;;15.98;86.95
75414;BME280;64758;52.122;5.404;2022-10-31T12:14:08;101975.22;;;15.93;88.35
75414;BME280;64758;52.122;5.404;2022-10-31T12:16:57;101980.97;;;15.90;88.18
75414;BME280;64758;52.122;5.404;2022-10-31T12:30:23;101936.16;;;16.05;88.93
75414;BME280;64758;52.122;5.404;2022-10-31T12:33:13;101924.72;;;16.17;88.83
75414;BME280;64758;52.122;5.404;2022-10-31T12:35:55;101929.53;;;16.28;87.08
75414;BME280;64758;52.122;5.404;2022-10-31T12:41:52;101917.16;;;16.27;86.66
75414;BME280;64758;52.122;5.404;2022-10-31T12:47:42;101897.88;;;16.38;87.35
75414;BME280;64758;52.122;5.404;2022-10-31T12:50:33;101882.16;;;16.35;86.97
75414;BME280;64758;52.122;5.404;2022-10-31T12:53:06;101879.09;;;16.38;86.57
75414;BME280;64758;52.122;5.404;2022-10-31T12:58:36;101875.00;;;16.49;86.71
75414;BME280;64758;52.122;5.404;2022-10-31T13:01:12;101870.88;;;16.53;85.33
75414;BME280;64758;52.122;5.404;2022-10-31T13:06:23;101870.50;;;16.56;85.50
75414;BME280;64758;52.122;5.404;2022-10-31T13:09:11;101856.66;;;16.52;85.51
75414;BME280;64758;52.122;5.404;2022-10-31T13:11:48;101853.31;;;16.44;85.59
75414;BME280;64758;52.122;5.404;2022-10-31T13:17:20;101849.84;;;16.50;86.55
75414;BME280;64758;52.122;5.404;2022-10-31T13:19:49;101825.69;;;16.43;86.02
75414;BME280;64758;52.122;5.404;2022-10-31T13:22:20;101821.94;;;16.38;86.66
75414;BME280;64758;52.122;5.404;2022-10-31T13:27:55;101813.69;;;16.39;86.87
75414;BME280;64758;52.122;5.404;2022-10-31T13:30:25;101805.03;;;16.37;87.47
75414;BME280;64758;52.122;5.404;2022-10-31T13:38:05;101800.97;;;16.61;86.98
75414;BME280;64758;52.122;5.404;2022-10-31T13:40:51;101797.25;;;16.68;86.96
75414;BME280;64758;52.122;5.404;2022-10-31T13:43:26;101785.09;;;16.72;87.31
75414;BME280;64758;52.122;5.404;2022-10-31T13:45:55;101777.47;;;16.82;86.90
75414;BME280;64758;52.122;5.404;2022-10-31T13:50:59;101763.69;;;16.91;86.20
75414;BME280;64758;52.122;5.404;2022-10-31T13:53:36;101762.63;;;16.99;86.07
75414;BME280;64758;52.122;5.404;2022-10-31T13:56:35;101755.44;;;16.99;86.28
75414;BME280;64758;52.122;5.404;2022-10-31T14:01:36;101751.28;;;16.97;86.22
75414;BME280;64758;52.122;5.404;2022-10-31T14:07:12;101742.81;;;16.93;85.85
75414;BME280;64758;52.122;5.404;2022-10-31T14:09:59;101743.66;;;16.87;85.20
75414;BME280;64758;52.122;5.404;2022-10-31T14:12:42;101744.66;;;16.80;85.74
75414;BME280;64758;52.122;5.404;2022-10-31T14:17:51;101737.00;;;16.77;85.46
75414;BME280;64758;52.122;5.404;2022-10-31T14:22:45;101722.13;;;16.68;86.17
75414;BME280;64758;52.122;5.404;2022-10-31T14:25:31;101714.91;;;16.62;86.25
75414;BME280;64758;52.122;5.404;2022-10-31T14:28:01;101715.31;;;16.59;86.69
75414;BME280;64758;52.122;5.404;2022-10-31T14:30:30;101701.09;;;16.52;87.01
75414;BME280;64758;52.122;5.404;2022-10-31T14:33:02;101691.38;;;16.51;87.29
75414;BME280;64758;52.122;5.404;2022-10-31T14:51:41;101669.03;;;16.31;87.59
75414;BME280;64758;52.122;5.404;2022-10-31T14:54:15;101665.09;;;16.27;87.79
75414;BME280;64758;52.122;5.404;2022-10-31T14:56:53;101664.25;;;16.27;88.42
75414;BME280;64758;52.122;5.404;2022-10-31T14:59:25;101674.56;;;16.23;88.40
75414;BME280;64758;52.122;5.404;2022-10-31T15:02:25;101673.94;;;16.21;88.30
75414;BME280;64758;52.122;5.404;2022-10-31T15:04:55;101663.63;;;16.18;88.43
75414;BME280;64758;52.122;5.404;2022-10-31T15:07:24;101664.03;;;16.15;88.98
75414;BME280;64758;52.122;5.404;2022-10-31T15:10:00;101660.72;;;16.13;88.88
75414;BME280;64758;52.122;5.404;2022-10-31T15:12:33;101659.25;;;16.11;89.18
75414;BME280;64758;52.122;5.404;2022-10-31T15:15:12;101662.34;;;16.08;88.99
75414;BME280;64758;52.122;5.404;2022-10-31T15:17:51;101655.34;;;16.00;89.24
75414;BME280;64758;52.122;5.404;2022-10-31T15:20:28;101656.97;;;16.01;89.22
75414;BME280;64758;52.122;5.404;2022-10-31T15:22:56;101649.13;;;16.00;89.36